Data for 11/15/2012

Time Sea-Level Adjusted Pressure Absolute Pressure Temperature Relative Humidity Dew Point   
(mb) (inHg) (mb) (inHg) (C) (F) (%) (C) (F)
00:05 1024 30.24 853 25.19 -0.4 31.3 86 -2.5 27.5
00:10 1024 30.24 853 25.19 -0.4 31.3 83 -2.9 26.7
00:15 1024 30.24 853 25.19 -0.1 31.8 82 -2.9 26.8
00:20 1024 30.24 853 25.19 -0.2 31.6 82 -2.9 26.8
00:25 1024 30.24 854 25.22 -0.3 31.5 82 -2.9 26.7
00:30 1024 30.24 854 25.22 -0.3 31.5 82 -2.9 26.8
00:35 1024 30.24 854 25.22 -0.2 31.7 82 -2.9 26.8
00:40 1024 30.24 854 25.22 -0.1 31.9 82 -2.9 26.8
00:45 1025 30.27 854 25.22 0 32 81 -2.8 26.9
00:50 1025 30.27 854 25.22 0.2 32.3 81 -2.8 27
00:55 1025 30.27 854 25.22 0.2 32.3 81 -2.7 27.1
01:00 1025 30.27 854 25.22 -0 32 81 -2.9 26.9
01:05 1025 30.27 854 25.22 -0.2 31.7 82 -2.9 26.7
01:10 1025 30.27 854 25.22 -0.2 31.7 81 -3.1 26.4
01:15 1025 30.27 854 25.22 0.1 32.2 80 -3 26.5
01:20 1025 30.27 854 25.22 0.2 32.3 80 -2.9 26.7
01:25 1025 30.27 854 25.22 0 32.1 81 -2.9 26.8
01:30 1025 30.27 854 25.22 0 32 80 -3 26.7
01:35 1025 30.27 854 25.22 -0.4 31.3 83 -2.9 26.8
01:40 1025 30.27 854 25.22 -0.6 31 84 -3 26.6
01:45 1025 30.27 854 25.22 -0.3 31.5 82 -3 26.5
01:50 1025 30.27 854 25.22 0 32.1 81 -2.9 26.8
01:55 1025 30.27 854 25.22 0.2 32.3 80 -2.9 26.7
02:00 1025 30.27 854 25.22 -0.1 31.8 82 -2.9 26.8
02:05 1025 30.27 854 25.22 -0.3 31.5 82 -3 26.7
02:10 1025 30.27 854 25.22 -0.2 31.6 82 -2.9 26.8
02:15 1025 30.27 854 25.22 -0.3 31.5 83 -2.8 26.9
02:20 1025 30.27 854 25.22 -0.2 31.7 80 -3.1 26.3
02:25 1025 30.27 854 25.22 -0.2 31.7 81 -3 26.6
02:30 1025 30.27 854 25.22 -0.5 31.1 84 -2.9 26.8
02:35 1025 30.27 854 25.22 -0.5 31.1 81 -3.5 25.8
02:40 1025 30.27 854 25.22 -0.3 31.4 78 -3.6 25.5
02:45 1025 30.27 854 25.22 -0.2 31.6 77 -3.8 25.2
02:50 1025 30.27 854 25.22 -0.3 31.4 76 -4 24.9
02:55 1025 30.27 854 25.22 -0.4 31.3 77 -4 24.8
03:00 1025 30.27 854 25.22 -0.5 31.1 77 -4 24.8
03:05 1025 30.27 854 25.22 -0.5 31 78 -3.9 25
03:10 1025 30.27 854 25.22 -0.5 31.1 76 -4.2 24.4
03:15 1025 30.27 854 25.22 -0.4 31.3 75 -4.3 24.3
03:20 1025 30.27 854 25.22 -0.3 31.5 76 -4 24.9
03:25 1025 30.27 854 25.22 -0.5 31.1 80 -3.6 25.5
03:30 1025 30.27 854 25.22 -0.7 30.8 80 -3.8 25.2
03:35 1025 30.27 854 25.22 -0.5 31.1 78 -3.9 25.1
03:40 1025 30.27 854 25.22 -0.4 31.3 78 -3.7 25.3
03:45 1025 30.27 854 25.22 -0.4 31.3 77 -3.9 25
03:50 1025 30.27 854 25.22 -0.6 31 79 -3.7 25.4
03:55 1025 30.27 854 25.22 -0.9 30.4 81 -3.7 25.3
04:00 1025 30.27 854 25.22 -1 30.2 81 -3.9 25
04:05 1025 30.27 854 25.22 -1 30.2 81 -3.9 25
04:10 1025 30.27 854 25.22 -1 30.1 81 -3.9 25.1
04:15 1025 30.27 854 25.22 -1.2 29.8 82 -3.9 24.9
04:20 1025 30.27 854 25.22 -1.6 29.2 84 -4 24.8
04:25 1025 30.27 854 25.22 -1.5 29.3 83 -4.1 24.7
04:30 1025 30.27 854 25.22 -1.5 29.3 83 -4 24.7
04:35 1025 30.27 854 25.22 -1.6 29 82 -4.3 24.3
04:40 1025 30.27 854 25.22 -1.6 29.2 82 -4.2 24.5
04:45 1025 30.27 854 25.22 -1.2 29.8 80 -4.2 24.5
04:50 1025 30.27 854 25.22 -1.1 30.1 79 -4.3 24.2
04:55 1025 30.27 854 25.22 -1 30.2 78 -4.3 24.3
05:00 1025 30.27 854 25.22 -1.3 29.6 80 -4.4 24.1
05:05 1025 30.27 854 25.22 -1.7 28.9 82 -4.5 24
05:10 1025 30.27 854 25.22 -1.9 28.6 84 -4.2 24.4
05:15 1025 30.27 854 25.22 -1.7 29 78 -5 23
05:20 1025 30.27 854 25.22 -1.2 29.9 76 -4.9 23.1
05:25 1025 30.27 854 25.22 -1.1 30.1 77 -4.7 23.6
05:30 1025 30.27 854 25.22 -1.4 29.4 78 -4.8 23.3
05:35 1025 30.27 854 25.22 -1.8 28.8 79 -5 22.9
05:40 1025 30.27 854 25.22 -1.9 28.6 79 -5.1 22.9
05:45 1025 30.27 854 25.22 -2.1 28.3 77 -5.5 22.1
05:50 1025 30.27 854 25.22 -2 28.5 76 -5.7 21.8
05:55 1025 30.27 854 25.22 -1.5 29.3 74 -5.6 21.9
06:00 1025 30.27 854 25.22 -1.4 29.5 73 -5.6 21.9
06:05 1025 30.27 854 25.22 -1.8 28.8 73 -6 21.2
06:10 1025 30.27 854 25.22 -1.9 28.6 74 -6 21.3
06:15 1025 30.27 854 25.22 -2.5 27.5 78 -5.9 21.5
06:20 1025 30.27 854 25.22 -3.3 26.1 80 -6.3 20.7
06:25 1025 30.27 854 25.22 -3.8 25.2 82 -6.4 20.4
06:30 1025 30.27 854 25.22 -3.7 25.3 82 -6.4 20.4
06:35 1025 30.27 854 25.22 -3.7 25.4 81 -6.6 20.2
06:40 1025 30.27 854 25.22 -3.8 25.2 80 -6.8 19.7
06:45 1025 30.27 854 25.22 -3.6 25.4 80 -6.7 20
06:50 1025 30.27 854 25.22 -3.6 25.6 77 -7.1 19.2
06:55 1025 30.27 854 25.22 -3.3 26.1 76 -6.9 19.6
07:00 1025 30.27 854 25.22 -3.4 25.8 77 -6.9 19.6
07:05 1025 30.27 854 25.22 -3.5 25.8 77 -6.9 19.6
07:10 1025 30.27 854 25.22 -3.6 25.5 78 -6.8 19.7
07:15 1025 30.27 854 25.22 -3.9 24.9 80 -7 19.4
07:20 1025 30.27 854 25.22 -3.9 25 78 -7.1 19.2
07:25 1025 30.27 854 25.22 -3.9 25 79 -7 19.3
07:30 1025 30.27 854 25.22 -3.9 25 79 -7.1 19.2
07:35 1025 30.27 854 25.22 -3.9 25.1 79 -7 19.3
07:40 1025 30.27 854 25.22 -3.7 25.3 78 -7 19.4
07:45 1025 30.27 854 25.22 -3.7 25.3 78 -7.1 19.3
07:50 1025 30.27 854 25.22 -3.7 25.4 77 -7.1 19.3
07:55 1025 30.27 854 25.22 -3.7 25.3 77 -7.2 19.1
08:00 1025 30.27 854 25.22 -3.8 25.2 77 -7.2 19
08:05 1025 30.27 854 25.22 -3.7 25.3 77 -7.1 19.2
08:10 1025 30.27 854 25.22 -3.7 25.4 77 -7.2 19.1
08:15 1025 30.27 854 25.22 -3.8 25.2 77 -7.2 19.1
08:20 1025 30.27 854 25.22 -3.9 25 77 -7.4 18.7
08:25 1025 30.27 854 25.22 -3.7 25.3 76 -7.3 18.8
08:30 1025 30.27 854 25.22 -3.7 25.3 77 -7.3 18.9
08:35 1025 30.27 854 25.22 -3.8 25.2 77 -7.3 18.9
08:40 1025 30.27 854 25.22 -4 24.9 77 -7.4 18.7
08:45 1025 30.27 854 25.22 -4 24.8 77 -7.5 18.5
08:50 1025 30.27 855 25.25 -3.8 25.1 75 -7.7 18.2
08:55 1025 30.27 854 25.22 -3.5 25.8 74 -7.5 18.6
09:00 1025 30.27 854 25.22 -3.5 25.7 74 -7.5 18.5
09:05 1025 30.27 854 25.22 -3.6 25.6 74 -7.6 18.3
09:10 1025 30.27 854 25.22 -3.7 25.4 74 -7.7 18.2
09:15 1025 30.27 855 25.25 -3.6 25.5 73 -7.8 18
09:20 1025 30.27 855 25.25 -3.5 25.6 72 -7.8 18
09:25 1025 30.27 855 25.25 -3.3 26.1 72 -7.6 18.3
09:30 1025 30.27 854 25.22 -3.1 26.3 71 -7.6 18.2
09:35 1025 30.27 854 25.22 -3.1 26.4 71 -7.6 18.3
09:40 1025 30.27 854 25.22 -2.6 27.4 69 -7.4 18.6
09:45 1025 30.27 854 25.22 -2.4 27.7 68 -7.4 18.6
09:50 1025 30.27 854 25.22 -2.3 27.8 68 -7.4 18.7
09:55 1025 30.27 855 25.25 -1.8 28.7 66 -7.5 18.6
10:00 1025 30.27 854 25.22 -1.3 29.6 65 -7.1 19.2
10:05 1025 30.27 854 25.22 -0.9 30.4 63 -7.1 19.3
10:10 1025 30.27 854 25.22 -0.8 30.5 63 -7 19.5
10:15 1025 30.27 854 25.22 -0.6 30.9 62 -7.1 19.2
10:20 1025 30.27 854 25.22 0.1 32.1 60 -6.9 19.7
10:25 1025 30.27 854 25.22 0.2 32.3 61 -6.4 20.4
10:30 1025 30.27 854 25.22 0.3 32.5 60 -6.5 20.2
10:35 1025 30.27 854 25.22 0.1 32.2 60 -6.8 19.7
10:40 1025 30.27 854 25.22 0 32.1 60 -6.9 19.6
10:45 1025 30.27 854 25.22 0.4 32.7 57 -7.1 19.3
10:50 1025 30.27 854 25.22 0.7 33.3 57 -6.8 19.7
10:55 1025 30.27 854 25.22 1.7 35 53 -6.8 19.7
11:00 1025 30.27 854 25.22 1.6 34.8 54 -6.7 20
11:05 1025 30.27 854 25.22 1.9 35.4 53 -6.6 20.1
11:10 1025 30.27 854 25.22 2.2 36 53 -6.5 20.4
11:15 1025 30.27 854 25.22 2.6 36.7 51 -6.5 20.2
11:20 1025 30.27 854 25.22 3.1 37.6 49 -6.5 20.3
11:25 1025 30.27 854 25.22 3.2 37.8 49 -6.4 20.5
11:30 1025 30.27 854 25.22 3.1 37.6 51 -6 21.1
11:35 1025 30.27 854 25.22 2.9 37.3 51 -6.3 20.7
11:40 1025 30.27 854 25.22 2.8 37 54 -5.7 21.7
11:45 1025 30.27 854 25.22 2.6 36.6 53 -6.2 20.9
11:50 1025 30.27 854 25.22 2.4 36.3 55 -5.8 21.6
11:55 1025 30.27 854 25.22 2.3 36.2 54 -6 21.2
12:00 1025 30.27 854 25.22 2.3 36.2 55 -5.8 21.5
12:05 1025 30.27 854 25.22 2.5 36.6 54 -5.8 21.6
12:10 1025 30.27 854 25.22 2.7 36.9 54 -5.6 21.8
12:15 1025 30.27 854 25.22 2.8 37.1 53 -5.9 21.4
12:20 1025 30.27 854 25.22 3 37.4 53 -5.8 21.6
12:25 1024 30.24 854 25.22 3.2 37.8 51 -6.1 21.1
12:30 1024 30.24 854 25.22 3.7 38.7 50 -5.8 21.6
12:35 1024 30.24 853 25.19 3.9 39 50 -5.6 22
12:40 1024 30.24 853 25.19 3.7 38.7 52 -5.3 22.5
12:45 1024 30.24 853 25.19 3.2 37.7 57 -4.6 23.8
12:50 1024 30.24 853 25.19 2.8 37 59 -4.5 23.8
12:55 1024 30.24 853 25.19 2.5 36.4 58 -4.9 23.1
13:00 1024 30.24 853 25.19 2.3 36.1 58 -5.2 22.7
13:05 1024 30.24 853 25.19 3.1 37.5 53 -5.6 21.9
13:10 1024 30.24 853 25.19 3.8 38.8 53 -5 23.1
13:15 1024 30.24 853 25.19 4.1 39.4 51 -5 23
13:20 1024 30.24 853 25.19 4 39.2 52 -4.9 23.1
13:25 1024 30.24 853 25.19 4 39.2 54 -4.6 23.8
13:30 1024 30.24 853 25.19 3.3 37.9 55 -4.8 23.4
13:35 1024 30.24 853 25.19 4.1 39.3 51 -5.1 22.8
13:40 1024 30.24 853 25.19 4.4 39.9 52 -4.6 23.8
13:45 1024 30.24 853 25.19 4.2 39.6 51 -5 22.9
13:50 1023 30.21 853 25.19 3.9 39 53 -4.9 23.3
13:55 1023 30.21 853 25.19 3.9 39 53 -4.7 23.5
14:00 1023 30.21 853 25.19 3.8 38.8 55 -4.4 24.1
14:05 1023 30.21 852 25.16 4.4 39.8 51 -4.8 23.3
14:10 1023 30.21 852 25.16 4.3 39.7 53 -4.5 23.8
14:15 1023 30.21 852 25.16 3.8 38.9 54 -4.7 23.6
14:20 1023 30.21 852 25.16 4.1 39.4 52 -5 23
14:25 1023 30.21 852 25.16 4.3 39.8 52 -4.6 23.7
14:30 1023 30.21 852 25.16 3.9 39 54 -4.6 23.7
14:35 1023 30.21 852 25.16 4 39.2 52 -4.9 23.1
14:40 1023 30.21 852 25.16 4.1 39.4 52 -4.9 23.2
14:45 1023 30.21 852 25.16 3.9 39 53 -4.9 23.3
14:50 1023 30.21 852 25.16 3.3 37.9 55 -4.9 23.2
14:55 1023 30.21 852 25.16 3.4 38 53 -5.3 22.5
15:00 1023 30.21 852 25.16 3.6 38.4 52 -5.3 22.4
15:05 1022 30.18 852 25.16 3.9 39.1 52 -5 23
15:10 1022 30.18 852 25.16 3.7 38.7 52 -5.3 22.5
15:15 1022 30.18 852 25.16 4.1 39.4 52 -4.9 23.1
15:20 1022 30.18 851 25.13 4.3 39.7 49 -5.5 22.1
15:25 1022 30.18 851 25.13 4.5 40 51 -4.9 23.2
15:30 1022 30.18 851 25.13 4.3 39.8 50 -5.2 22.6
15:35 1022 30.18 851 25.13 4.4 39.9 51 -5 23
15:40 1022 30.18 851 25.13 3.2 37.8 54 -5.1 22.8
15:45 1022 30.18 851 25.13 3.4 38.1 52 -5.4 22.3
15:50 1022 30.18 851 25.13 3.6 38.5 53 -5.2 22.7
15:55 1022 30.18 851 25.13 4 39.2 51 -5.3 22.5
16:00 1022 30.18 851 25.13 4.3 39.8 49 -5.5 22
16:05 1022 30.18 851 25.13 4.6 40.3 48 -5.5 22.2
16:10 1022 30.18 851 25.13 4.7 40.4 50 -5 23.1
16:15 1022 30.18 851 25.13 4.4 40 50 -5.1 22.9
16:20 1022 30.18 851 25.13 4.4 40 50 -5.2 22.7
16:25 1022 30.18 851 25.13 3.7 38.7 52 -5.2 22.6
16:30 1022 30.18 851 25.13 3.8 38.9 50 -5.7 21.8
16:35 1022 30.18 851 25.13 4.2 39.6 49 -5.7 21.8
16:40 1022 30.18 851 25.13 4.6 40.3 47 -5.7 21.8
16:45 1022 30.18 851 25.13 4.3 39.8 49 -5.4 22.3
16:50 1022 30.18 851 25.13 4.1 39.4 51 -5.1 22.8
16:55 1022 30.18 851 25.13 4 39.3 48 -5.9 21.4
17:00 1022 30.18 851 25.13 3.6 38.5 51 -5.6 21.9
17:05 1022 30.18 851 25.13 3.7 38.7 51 -5.5 22
17:10 1022 30.18 851 25.13 3.5 38.3 53 -5.2 22.6
17:15 1022 30.18 851 25.13 3.7 38.6 52 -5.2 22.6
17:20 1022 30.18 851 25.13 3.4 38.1 54 -5 22.9
17:25 1022 30.18 851 25.13 3 37.4 55 -5.2 22.6
17:30 1022 30.18 851 25.13 2.6 36.7 56 -5.2 22.7
17:35 1022 30.18 851 25.13 2.5 36.4 55 -5.8 21.6
17:40 1022 30.18 851 25.13 2.4 36.3 54 -5.9 21.4
17:45 1022 30.18 851 25.13 2.1 35.8 57 -5.6 21.9
17:50 1022 30.18 851 25.13 1.7 35.1 56 -6.1 21.1
17:55 1022 30.18 851 25.13 1.2 34.2 59 -5.9 21.4
18:00 1022 30.18 851 25.13 1 33.8 60 -5.8 21.5
18:05 1022 30.18 851 25.13 0.9 33.6 62 -5.6 21.9
18:10 1022 30.18 851 25.13 0.6 33.1 62 -5.9 21.4
18:15 1022 30.18 851 25.13 0.3 32.6 62 -6.1 21
18:20 1021 30.15 851 25.13 0.1 32.2 63 -6.1 21.1
18:25 1021 30.15 851 25.13 -0.1 31.8 64 -6.1 21
18:30 1021 30.15 851 25.13 -0.6 30.9 66 -6.2 20.8
18:35 1021 30.15 851 25.13 -0.6 30.9 62 -7 19.4
18:40 1021 30.15 851 25.13 0.1 32.2 61 -6.5 20.2
18:45 1021 30.15 851 25.13 -0.2 31.6 65 -6.1 21.1
18:50 1021 30.15 851 25.13 -0.8 30.5 65 -6.6 20
18:55 1021 30.15 850 25.1 -0.9 30.4 67 -6.3 20.7
19:00 1021 30.15 850 25.1 -0.9 30.4 67 -6.3 20.7
19:05 1021 30.15 850 25.1 -0.9 30.4 66 -6.3 20.6
19:10 1021 30.15 850 25.1 -0.9 30.4 67 -6.4 20.5
19:15 1021 30.15 850 25.1 -1.1 30.1 68 -6.3 20.7
19:20 1021 30.15 850 25.1 -1.1 30 67 -6.4 20.4
19:25 1021 30.15 850 25.1 -1.3 29.6 69 -6.3 20.6
19:30 1021 30.15 850 25.1 -1.6 29.2 69 -6.5 20.2
19:35 1021 30.15 850 25.1 -1.6 29.2 69 -6.5 20.2
19:40 1021 30.15 850 25.1 -1.5 29.3 69 -6.5 20.3
19:45 1021 30.15 850 25.1 -1.5 29.3 68 -6.7 19.9
19:50 1021 30.15 850 25.1 -1.4 29.5 65 -7.2 19.1
19:55 1021 30.15 850 25.1 -1.3 29.6 65 -7.1 19.3
20:00 1021 30.15 850 25.1 -1.3 29.8 64 -7.2 19
20:05 1021 30.15 850 25.1 -1.1 30 64 -7 19.4
20:10 1021 30.15 850 25.1 -1 30.2 64 -6.9 19.5
20:15 1021 30.15 850 25.1 -1 30.3 64 -7 19.4
20:20 1021 30.15 850 25.1 -0.8 30.6 63 -6.9 19.5
20:25 1021 30.15 850 25.1 -0.9 30.4 65 -6.6 20.1
20:30 1021 30.15 850 25.1 -0.8 30.5 66 -6.3 20.6
20:35 1021 30.15 850 25.1 -1.1 30.1 67 -6.5 20.3
20:40 1020 30.12 850 25.1 -1 30.2 66 -6.5 20.3
20:45 1020 30.12 850 25.1 -1 30.2 67 -6.4 20.4
20:50 1020 30.12 850 25.1 -1.3 29.7 67 -6.7 20
20:55 1020 30.12 849 25.07 -1.4 29.4 68 -6.6 20
21:00 1020 30.12 849 25.07 -1.6 29.1 68 -6.8 19.8
21:05 1020 30.12 849 25.07 -1.3 29.7 66 -6.8 19.7
21:10 1020 30.12 849 25.07 -1 30.2 64 -6.9 19.6
21:15 1020 30.12 849 25.07 -0.9 30.3 64 -6.9 19.5
21:20 1020 30.12 849 25.07 -1.2 29.9 65 -6.9 19.5
21:25 1020 30.12 849 25.07 -1.2 29.8 65 -7 19.3
21:30 1020 30.12 849 25.07 -1.2 29.8 64 -7.2 19
21:35 1020 30.12 849 25.07 -1.1 30.1 63 -7.2 19.1
21:40 1020 30.12 849 25.07 -0.9 30.3 63 -7.2 19.1
21:45 1020 30.12 849 25.07 -1 30.2 63 -7.2 19.1
21:50 1020 30.12 849 25.07 -1 30.1 63 -7.2 19
21:55 1020 30.12 849 25.07 -1 30.2 62 -7.4 18.6
22:00 1020 30.12 849 25.07 -0.7 30.7 60 -7.6 18.3
22:05 1020 30.12 849 25.07 -0.5 31.1 59 -7.6 18.4
22:10 1019 30.09 849 25.07 -0.4 31.3 58 -7.7 18.2
22:15 1019 30.09 849 25.07 -0.4 31.3 58 -7.7 18.2
22:20 1019 30.09 849 25.07 -0.3 31.5 57 -7.8 17.9
22:25 1019 30.09 849 25.07 -0.2 31.6 57 -7.8 18
22:30 1019 30.09 849 25.07 -0.4 31.3 57 -7.8 17.9
22:35 1019 30.09 849 25.07 -0.4 31.4 57 -7.9 17.8
22:40 1019 30.09 849 25.07 -0.4 31.3 57 -7.8 17.9
22:45 1019 30.09 849 25.07 -0.5 31.1 59 -7.5 18.5
22:50 1019 30.09 849 25.07 -0.8 30.5 61 -7.5 18.5
22:55 1019 30.09 849 25.07 -1 30.2 61 -7.6 18.4
23:00 1019 30.09 849 25.07 -1 30.2 61 -7.5 18.4
23:05 1019 30.09 849 25.07 -1 30.3 61 -7.5 18.5
23:10 1019 30.09 848 25.04 -1 30.2 62 -7.4 18.7
23:15 1019 30.09 848 25.04 -1.2 29.9 63 -7.3 18.8
23:20 1019 30.09 848 25.04 -1.3 29.7 64 -7.3 18.9
23:25 1019 30.09 848 25.04 -1.6 29.1 65 -7.4 18.7
23:30 1019 30.09 848 25.04 -1.6 29.1 65 -7.5 18.6
23:35 1019 30.09 848 25.04 -1.5 29.3 64 -7.4 18.7
23:40 1019 30.09 848 25.04 -1.3 29.6 63 -7.4 18.7
23:45 1019 30.09 848 25.04 -1.1 30 62 -7.5 18.4
23:50 1019 30.09 848 25.04 -0.6 30.9 60 -7.4 18.7
23:55 1019 30.09 848 25.04 -0.7 30.7 60 -7.5 18.5
24:00 1019 30.09 848 25.04 -1.1 30 61 -7.6 18.3